createdAt,value
2019-02-24T00:00:04.207Z,11.53
2019-02-24T00:05:09.301Z,11.20
2019-02-24T00:10:14.275Z,11.07
2019-02-24T00:15:20.843Z,9.97
2019-02-24T00:20:25.068Z,7.53
2019-02-24T00:25:33.881Z,11.03
2019-02-24T00:30:39.988Z,12.90
2019-02-24T00:35:44.714Z,14.27
2019-02-24T00:40:52.380Z,10.30
2019-02-24T00:45:58.506Z,11.70
2019-02-24T00:51:02.607Z,12.10
2019-02-24T00:56:06.803Z,12.43
2019-02-24T01:01:10.955Z,11.70
2019-02-24T01:06:15.655Z,10.50
2019-02-24T01:11:20.088Z,12.27
2019-02-24T01:16:29.238Z,11.80
2019-02-24T01:21:34.712Z,12.50
2019-02-24T01:26:43.787Z,9.50
2019-02-24T01:31:48.116Z,10.97
2019-02-24T01:36:53.148Z,8.30
2019-02-24T01:42:00.220Z,13.83
2019-02-24T01:47:04.228Z,10.80
2019-02-24T01:52:10.941Z,9.07
2019-02-24T01:57:15.232Z,13.27
2019-02-24T02:02:20.383Z,9.07
2019-02-24T02:07:34.501Z,11.73
2019-02-24T02:12:38.828Z,12.27
2019-02-24T02:17:44.916Z,8.53
2019-02-24T02:22:49.534Z,9.43
2019-02-24T02:27:54.620Z,9.37
2019-02-24T02:33:01.957Z,9.57
2019-02-24T02:38:08.972Z,10.10
2019-02-24T02:43:13.778Z,8.83
2019-02-24T02:48:17.892Z,8.90
2019-02-24T02:53:24.020Z,9.20
2019-02-24T02:58:31.725Z,9.13
2019-02-24T03:03:36.518Z,11.33
2019-02-24T03:08:48.413Z,10.83
2019-02-24T03:13:55.207Z,9.43
2019-02-24T03:19:00.021Z,8.20
2019-02-24T03:24:10.952Z,9.20
2019-02-24T03:29:15.120Z,6.67
2019-02-24T03:34:19.816Z,7.10
2019-02-24T03:39:27.889Z,8.53
2019-02-24T03:44:34.320Z,10.43
2019-02-24T03:49:39.096Z,8.90
2019-02-24T03:54:43.358Z,8.10
2019-02-24T03:59:50.317Z,7.43
2019-02-24T04:04:59.814Z,7.03
2019-02-24T04:10:05.706Z,7.20
2019-02-24T04:15:10.225Z,8.20
2019-02-24T04:20:14.863Z,7.67
2019-02-24T04:25:19.135Z,6.83
2019-02-24T04:30:23.755Z,9.80
2019-02-24T04:35:29.598Z,7.17
2019-02-24T04:40:33.816Z,10.10
2019-02-24T04:45:38.457Z,9.00
2019-02-24T04:50:43.185Z,6.70
2019-02-24T04:55:47.970Z,10.17
2019-02-24T05:00:52.203Z,8.40
2019-02-24T05:05:56.828Z,8.53
2019-02-24T05:11:00.979Z,5.97
2019-02-24T05:16:05.772Z,7.70
2019-02-24T05:21:11.661Z,10.17
2019-02-24T05:26:15.801Z,9.83
2019-02-24T05:31:20.672Z,8.37
2019-02-24T05:36:24.837Z,7.80
2019-02-24T05:41:28.923Z,9.87
2019-02-24T05:46:33.025Z,10.73
2019-02-24T05:51:37.122Z,8.37
2019-02-24T05:56:43.288Z,8.53
2019-02-24T06:01:47.430Z,7.47
2019-02-24T06:06:52.108Z,8.13
2019-02-24T06:11:56.953Z,7.43
2019-02-24T06:17:02.162Z,5.03
2019-02-24T06:22:06.906Z,8.10
2019-02-24T06:27:11.725Z,5.00
2019-02-24T06:32:16.082Z,5.83
2019-02-24T06:37:20.279Z,6.07
2019-02-24T06:42:27.353Z,5.70
2019-02-24T06:47:32.108Z,5.87
2019-02-24T06:52:36.493Z,5.93
2019-02-24T06:57:40.564Z,7.87
2019-02-24T07:02:44.650Z,6.97
2019-02-24T07:07:49.368Z,7.87
2019-02-24T07:12:53.491Z,6.53
2019-02-24T07:17:58.691Z,6.93
2019-02-24T07:23:04.390Z,6.03
2019-02-24T07:28:12.309Z,5.40
2019-02-24T07:33:18.436Z,6.73
2019-02-24T07:38:23.658Z,5.37
2019-02-24T07:43:31.111Z,5.00
2019-02-24T07:48:35.986Z,5.07
2019-02-24T07:53:40.938Z,5.20
2019-02-24T07:58:46.050Z,7.17
2019-02-24T08:03:51.575Z,5.03
2019-02-24T08:08:56.864Z,6.93
2019-02-24T08:14:01.589Z,5.57
2019-02-24T08:19:07.728Z,5.70
2019-02-24T08:24:21.408Z,6.43
2019-02-24T08:29:32.570Z,4.43
2019-02-24T08:34:37.533Z,6.33
2019-02-24T08:39:41.744Z,5.00
2019-02-24T08:44:49.684Z,4.97
2019-02-24T08:49:55.336Z,5.83
2019-02-24T08:55:00.466Z,3.87
2019-02-24T09:00:06.809Z,6.70
2019-02-24T09:05:13.455Z,3.90
2019-02-24T09:10:18.464Z,4.77
2019-02-24T09:15:24.867Z,4.00
2019-02-24T09:20:29.627Z,4.53
2019-02-24T09:25:37.130Z,5.63
2019-02-24T09:30:43.134Z,4.63
2019-02-24T09:35:47.972Z,3.13
2019-02-24T09:40:52.891Z,3.90
2019-02-24T09:45:57.791Z,3.70
2019-02-24T09:51:02.686Z,3.47
2019-02-24T09:56:09.875Z,7.13
2019-02-24T10:01:14.949Z,3.27
2019-02-24T10:06:19.922Z,3.30
2019-02-24T10:11:26.077Z,3.80
2019-02-24T10:16:31.067Z,5.13
2019-02-24T10:21:37.947Z,4.30
2019-02-24T10:26:42.896Z,3.37
2019-02-24T10:31:47.829Z,3.87
2019-02-24T10:36:52.621Z,4.20
2019-02-24T10:41:57.470Z,4.77
2019-02-24T10:47:02.787Z,6.57
2019-02-24T10:52:07.918Z,4.37
2019-02-24T10:57:13.137Z,4.77
2019-02-24T11:02:22.059Z,5.77
2019-02-24T11:07:27.342Z,6.47
2019-02-24T11:12:33.546Z,3.63
2019-02-24T11:17:39.711Z,4.53
2019-02-24T11:22:44.567Z,5.20
2019-02-24T11:27:49.457Z,2.93
2019-02-24T11:32:54.470Z,4.87
2019-02-24T11:37:59.373Z,4.07
2019-02-24T11:43:04.409Z,4.00
2019-02-24T11:48:09.729Z,2.93
2019-02-24T11:53:16.487Z,3.47
2019-02-24T11:58:22.108Z,3.40
2019-02-24T12:03:27.497Z,3.00
2019-02-24T12:08:32.586Z,6.17
2019-02-24T12:13:37.833Z,4.27
2019-02-24T12:18:47.399Z,2.67
2019-02-24T12:23:52.225Z,2.83
2019-02-24T12:28:57.214Z,3.27
2019-02-24T12:34:02.703Z,3.87
2019-02-24T12:39:11.245Z,2.80
2019-02-24T12:44:23.177Z,2.63
2019-02-24T12:49:28.486Z,2.70
2019-02-24T12:54:33.552Z,3.80
2019-02-24T12:59:39.592Z,2.57
2019-02-24T13:04:52.486Z,3.60
2019-02-24T13:09:57.815Z,3.40
2019-02-24T13:15:03.426Z,5.47
2019-02-24T13:20:10.115Z,4.80
2019-02-24T13:25:15.951Z,2.20
2019-02-24T13:30:21.953Z,4.10
2019-02-24T13:35:29.601Z,2.50
2019-02-24T13:40:34.530Z,2.80
2019-02-24T13:45:39.593Z,2.97
2019-02-24T13:50:44.814Z,2.47
2019-02-24T13:55:53.129Z,2.23
2019-02-24T14:00:58.366Z,3.20
2019-02-24T14:06:03.336Z,3.93
2019-02-24T14:11:10.105Z,3.10
2019-02-24T14:16:14.951Z,2.10
2019-02-24T14:21:19.989Z,3.13
2019-02-24T14:26:24.980Z,3.00
2019-02-24T14:31:33.064Z,2.33
2019-02-24T14:36:38.028Z,3.63
2019-02-24T14:41:43.079Z,3.10
2019-02-24T14:46:51.480Z,2.40
2019-02-24T14:51:57.258Z,2.53
2019-02-24T14:57:02.060Z,2.70
2019-02-24T15:02:07.403Z,2.67
2019-02-24T15:07:12.337Z,2.60
2019-02-24T15:12:18.291Z,6.67
2019-02-24T15:17:24.009Z,1.73
2019-02-24T15:22:29.076Z,2.40
2019-02-24T15:27:34.033Z,3.97
2019-02-24T15:32:39.019Z,2.53
2019-02-24T15:37:44.666Z,2.40
2019-02-24T15:42:50.463Z,2.23
2019-02-24T15:47:55.401Z,1.93
2019-02-24T15:53:00.705Z,2.03
2019-02-24T15:58:05.814Z,3.17
2019-02-24T16:03:11.524Z,2.37
2019-02-24T16:08:19.919Z,2.10
2019-02-24T16:13:25.280Z,2.47
2019-02-24T16:18:30.073Z,2.20
2019-02-24T16:23:36.911Z,2.70
2019-02-24T16:28:46.241Z,2.27
2019-02-24T16:33:57.380Z,2.03
2019-02-24T16:39:05.459Z,2.93
2019-02-24T16:44:11.746Z,3.47
2019-02-24T16:49:18.592Z,2.80
2019-02-24T16:54:23.384Z,3.43
2019-02-24T16:59:44.980Z,5.00
2019-02-24T17:04:49.943Z,3.80
2019-02-24T17:15:29.167Z,6.27
2019-02-24T17:20:34.077Z,6.93
2019-02-24T17:25:41.462Z,5.23
2019-02-24T17:30:46.275Z,5.80
2019-02-24T17:35:50.436Z,6.67
2019-02-24T17:40:55.370Z,7.93
2019-02-24T17:46:00.615Z,10.40
2019-02-24T17:51:05.417Z,8.67
2019-02-24T17:56:11.665Z,8.90
2019-02-24T18:01:16.754Z,11.23
2019-02-24T18:06:21.187Z,6.27
2019-02-24T18:11:25.600Z,9.37
2019-02-24T18:16:31.968Z,10.77
2019-02-24T18:21:37.677Z,7.30
2019-02-24T18:26:45.657Z,6.80
2019-02-24T18:31:49.945Z,9.10
2019-02-24T18:36:55.108Z,9.43
2019-02-24T18:42:00.122Z,8.90
2019-02-24T18:47:05.666Z,6.70
2019-02-24T18:52:10.192Z,8.00
2019-02-24T18:57:15.997Z,8.93
2019-02-24T19:02:21.025Z,9.43
2019-02-24T19:07:27.104Z,7.03
2019-02-24T19:12:33.279Z,5.40
2019-02-24T19:17:39.180Z,6.03
2019-02-24T19:22:44.625Z,7.43
2019-02-24T19:27:51.537Z,5.40
2019-02-24T19:33:03.541Z,6.80
2019-02-24T19:38:08.560Z,6.60
2019-02-24T19:43:15.250Z,7.00
2019-02-24T19:48:20.012Z,7.00
2019-02-24T19:53:25.675Z,7.33
2019-02-24T19:58:32.559Z,7.93
2019-02-24T20:03:39.127Z,7.03
2019-02-24T20:08:48.213Z,7.93
2019-02-24T20:13:57.855Z,7.83
2019-02-24T20:19:03.783Z,7.43
2019-02-24T20:24:09.608Z,11.37
2019-02-24T20:29:14.205Z,10.60
2019-02-24T20:34:25.525Z,9.97
2019-02-24T20:39:25.821Z,8.40
2019-02-24T20:44:31.678Z,9.00
2019-02-24T20:49:36.236Z,8.63
2019-02-24T20:54:40.799Z,9.17
2019-02-24T20:59:48.281Z,10.43
2019-02-24T21:04:57.084Z,10.03
2019-02-24T21:10:04.155Z,7.10
2019-02-24T21:15:09.997Z,8.83
2019-02-24T21:20:15.847Z,7.17
2019-02-24T21:25:20.185Z,8.73
2019-02-24T21:30:26.259Z,7.50
2019-02-24T21:36:04.094Z,7.00
2019-02-24T21:41:10.356Z,7.23
2019-02-24T21:46:17.216Z,7.47
